CheckWX is a tool to help pilots better visualize weather data.  It is not intended as a substitute for an official pre-flight weather briefing.

13:13:17 UTC

KUCY METAR
Everett-Stewart Regional Airport
Union City, Tennessee, USA
Current

18 mins ago

KUCY 271255Z AUTO 28003KT 10SM CLR 03/02 A2998 RMK A01
Observed
Jan-27 @ 12:55 UTC
Wind
  • 280° at 3 KTS
Visibility
10 SM
Flight Rules
VFR
Cloud Levels
  • Clear skies
Temperature
C / 37°F
Dewpoint
C / 36°F
Humidity
93%
Altimeter
29.98" Hg
Pressure
1015.22 hPa
Previous

38 mins ago

KUCY 271235Z AUTO 00000KT 10SM CLR 03/02 A2997 RMK A01
Observed
Jan-27 @ 12:35 UTC
Visibility
10 SM
Flight Rules
VFR
Cloud Levels
  • Clear skies
Temperature
C / 37°F
Dewpoint
C / 36°F
Humidity
93%
Altimeter
29.97" Hg
Pressure
1014.92 hPa
Previous

58 mins ago

KUCY 271215Z AUTO 29003KT 10SM BKN027 04/02 A2997 RMK A01
Observed
Jan-27 @ 12:15 UTC
Wind
  • 290° at 3 KTS
Visibility
10 SM
Flight Rules
MVFR
Cloud Levels
  • Broken at 2,700' AGL
Temperature
C / 39°F
Dewpoint
C / 36°F
Humidity
87%
Altimeter
29.97" Hg
Pressure
1014.92 hPa